createdAt,value
2022-08-17T00:00:34.356Z,7.37
2022-08-17T00:03:25.313Z,7.30
2022-08-17T00:06:14.022Z,8.00
2022-08-17T00:09:01.838Z,7.65
2022-08-17T00:12:41.605Z,7.80
2022-08-17T00:14:53.788Z,7.27
2022-08-17T00:17:39.529Z,7.57
2022-08-17T00:20:30.665Z,9.98
2022-08-17T00:23:21.046Z,11.63
2022-08-17T00:26:06.394Z,10.15
2022-08-17T00:28:52.938Z,10.47
2022-08-17T00:31:38.019Z,10.43
2022-08-17T00:34:25.130Z,10.30
2022-08-17T00:37:12.991Z,9.32
2022-08-17T00:39:58.045Z,9.30
2022-08-17T00:42:44.791Z,8.80
2022-08-17T00:45:29.762Z,8.90
2022-08-17T00:48:29.501Z,8.23
2022-08-17T00:51:21.095Z,8.35
2022-08-17T00:54:14.535Z,8.02
2022-08-17T00:57:04.891Z,8.07
2022-08-17T01:00:02.207Z,7.70
2022-08-17T01:02:48.965Z,8.10
2022-08-17T01:05:38.331Z,7.57
2022-08-17T01:08:30.950Z,7.47
2022-08-17T01:11:17.210Z,7.30
2022-08-17T01:14:02.758Z,7.80
2022-08-17T01:16:50.649Z,7.75
2022-08-17T01:19:39.231Z,7.53
2022-08-17T01:22:25.791Z,7.78
2022-08-17T01:25:12.587Z,7.53
2022-08-17T01:27:57.998Z,7.45
2022-08-17T01:30:57.420Z,7.63
2022-08-17T01:33:44.513Z,7.22
2022-08-17T01:36:30.441Z,7.60
2022-08-17T01:39:24.848Z,7.17
2022-08-17T01:42:21.333Z,7.32
2022-08-17T01:45:15.611Z,7.15
2022-08-17T01:48:01.188Z,7.13
2022-08-17T01:50:48.950Z,7.55
2022-08-17T01:53:41.481Z,7.23
2022-08-17T01:56:29.951Z,7.18
2022-08-17T01:59:16.418Z,7.43
2022-08-17T02:02:01.741Z,7.45
2022-08-17T02:04:46.923Z,7.28
2022-08-17T02:07:31.872Z,7.40
2022-08-17T02:10:34.352Z,7.20
2022-08-17T02:13:19.710Z,6.68
2022-08-17T02:16:05.116Z,6.88
2022-08-17T02:18:50.029Z,7.13
2022-08-17T02:21:36.920Z,7.50
2022-08-17T02:25:00.058Z,7.05
2022-08-17T02:27:39.855Z,7.22
2022-08-17T02:30:59.699Z,6.80
2022-08-17T02:33:42.828Z,7.32
2022-08-17T02:36:29.045Z,7.27
2022-08-17T02:39:14.792Z,7.53
2022-08-17T02:42:02.228Z,7.97
2022-08-17T02:44:47.950Z,7.15
2022-08-17T02:47:33.677Z,7.15
2022-08-17T02:50:21.892Z,6.63
2022-08-17T02:53:07.128Z,6.60
2022-08-17T02:55:53.163Z,6.88
2022-08-17T02:58:38.915Z,7.22
2022-08-17T03:01:24.183Z,7.47
2022-08-17T03:04:09.153Z,7.57
2022-08-17T03:06:54.150Z,6.97
2022-08-17T03:09:39.587Z,7.28
2022-08-17T03:12:32.540Z,7.40
2022-08-17T03:15:23.522Z,7.65
2022-08-17T03:18:08.756Z,7.40
2022-08-17T03:21:04.553Z,7.55
2022-08-17T03:23:49.884Z,7.78
2022-08-17T03:26:40.029Z,7.03
2022-08-17T03:29:24.928Z,7.82
2022-08-17T03:32:12.602Z,7.80
2022-08-17T03:35:01.371Z,7.30
2022-08-17T03:37:46.853Z,7.22
2022-08-17T03:40:58.745Z,7.20
2022-08-17T03:43:44.425Z,7.20
2022-08-17T03:46:47.966Z,7.50
2022-08-17T03:49:51.741Z,7.53
2022-08-17T03:52:55.660Z,7.30
2022-08-17T03:55:59.501Z,6.90
2022-08-17T03:58:45.948Z,7.75
2022-08-17T04:01:32.032Z,7.07
2022-08-17T04:04:17.933Z,7.45
2022-08-17T04:07:04.091Z,7.57
2022-08-17T04:09:49.232Z,7.40
2022-08-17T04:12:47.080Z,7.00
2022-08-17T04:15:33.340Z,7.30
2022-08-17T04:18:19.113Z,6.78
2022-08-17T04:21:04.666Z,6.97
2022-08-17T04:23:50.745Z,7.55
2022-08-17T04:26:52.177Z,7.18
2022-08-17T04:29:54.763Z,6.70
2022-08-17T04:33:15.578Z,7.15
2022-08-17T04:36:02.613Z,7.40
2022-08-17T04:38:47.687Z,7.18
2022-08-17T04:41:51.342Z,7.72
2022-08-17T04:44:37.859Z,7.50
2022-08-17T04:47:23.422Z,7.35
2022-08-17T04:50:08.744Z,7.38
2022-08-17T04:52:53.938Z,7.38
2022-08-17T04:55:40.439Z,7.63
2022-08-17T04:58:25.938Z,7.93
2022-08-17T05:01:11.341Z,7.80
2022-08-17T05:04:00.776Z,8.18
2022-08-17T05:07:06.098Z,8.23
2022-08-17T05:09:51.018Z,7.70
2022-08-17T05:12:35.946Z,8.37
2022-08-17T05:15:21.301Z,7.50
2022-08-17T05:18:07.925Z,8.57
2022-08-17T05:20:53.595Z,7.90
2022-08-17T05:23:42.418Z,7.90
2022-08-17T05:26:29.446Z,8.13
2022-08-17T05:29:14.605Z,8.55
2022-08-17T05:32:38.642Z,8.45
2022-08-17T05:35:16.005Z,8.80
2022-08-17T05:38:01.689Z,8.27
2022-08-17T05:40:47.370Z,8.20
2022-08-17T05:43:35.451Z,9.00
2022-08-17T05:46:27.276Z,9.70
2022-08-17T05:49:14.362Z,8.90
2022-08-17T05:52:33.303Z,9.25
2022-08-17T05:55:30.507Z,9.60
2022-08-17T05:58:32.479Z,9.10
2022-08-17T06:01:30.235Z,9.55
2022-08-17T06:04:41.243Z,9.00
2022-08-17T06:07:38.273Z,8.90
2022-08-17T06:10:51.571Z,8.40
2022-08-17T06:13:41.835Z,8.10
2022-08-17T06:16:35.449Z,8.13
2022-08-17T06:19:40.662Z,7.45
2022-08-17T06:22:32.988Z,7.20
2022-08-17T06:25:47.860Z,7.43
2022-08-17T06:28:41.918Z,7.30
2022-08-17T06:31:32.671Z,7.53
2022-08-17T06:34:19.379Z,6.93
2022-08-17T06:37:32.346Z,7.78
2022-08-17T06:40:24.532Z,7.10
2022-08-17T06:43:19.329Z,7.22
2022-08-17T06:46:25.399Z,7.10
2022-08-17T06:49:25.844Z,7.28
2022-08-17T06:52:42.294Z,7.40
2022-08-17T06:55:46.880Z,6.93
2022-08-17T06:58:33.689Z,6.80
2022-08-17T07:01:24.189Z,6.68
2022-08-17T07:04:19.164Z,6.60
2022-08-17T07:07:27.641Z,6.45
2022-08-17T07:10:13.579Z,6.83
2022-08-17T07:13:12.486Z,6.75
2022-08-17T07:16:11.145Z,6.38
2022-08-17T07:18:58.888Z,6.63
2022-08-17T07:22:06.516Z,6.72
2022-08-17T07:24:58.206Z,6.53
2022-08-17T07:27:50.934Z,6.40
2022-08-17T07:30:50.023Z,6.40
2022-08-17T07:33:36.815Z,6.18
2022-08-17T07:36:29.966Z,6.22
2022-08-17T07:39:27.111Z,6.30
2022-08-17T07:42:12.344Z,6.45
2022-08-17T07:44:58.077Z,6.28
2022-08-17T07:48:09.491Z,6.53
2022-08-17T07:50:54.695Z,6.55
2022-08-17T07:53:39.697Z,5.97
2022-08-17T07:56:34.728Z,5.93
2022-08-17T07:59:23.729Z,6.47
2022-08-17T08:02:29.543Z,5.97
2022-08-17T08:05:48.781Z,6.05
2022-08-17T08:08:42.231Z,6.40
2022-08-17T08:11:38.327Z,5.78
2022-08-17T08:14:34.004Z,6.07
2022-08-17T08:17:23.919Z,5.43
2022-08-17T08:20:52.700Z,5.88
2022-08-17T08:23:23.836Z,6.03
2022-08-17T08:26:37.080Z,6.10
2022-08-17T08:29:57.606Z,5.85
2022-08-17T08:33:20.155Z,5.75
2022-08-17T08:37:14.210Z,5.75
2022-08-17T08:39:45.225Z,5.60
2022-08-17T08:43:06.182Z,6.10
2022-08-17T08:46:04.267Z,5.75
2022-08-17T08:49:39.043Z,5.55
2022-08-17T08:52:32.192Z,5.95
2022-08-17T08:55:27.281Z,5.90
2022-08-17T08:58:31.632Z,5.50
2022-08-17T09:01:35.879Z,5.50
2022-08-17T09:05:13.486Z,5.60
2022-08-17T09:08:09.385Z,5.35
2022-08-17T09:11:17.851Z,5.97
2022-08-17T09:14:21.716Z,5.63
2022-08-17T09:17:35.539Z,5.20
2022-08-17T09:20:38.266Z,5.50
2022-08-17T09:23:35.791Z,5.32
2022-08-17T09:26:31.260Z,5.47
2022-08-17T09:29:17.986Z,5.35
2022-08-17T09:32:17.490Z,5.60
2022-08-17T09:35:19.886Z,5.25
2022-08-17T09:38:19.452Z,5.40
2022-08-17T09:41:16.651Z,5.37
2022-08-17T09:44:35.675Z,5.07
2022-08-17T09:47:40.589Z,5.43
2022-08-17T09:50:55.375Z,5.28
2022-08-17T09:53:44.572Z,5.25
2022-08-17T09:56:45.397Z,5.40
2022-08-17T09:59:46.493Z,5.13
2022-08-17T10:03:00.454Z,5.30
2022-08-17T10:06:23.114Z,5.00
2022-08-17T10:09:20.006Z,5.15
2022-08-17T10:12:29.715Z,5.07
2022-08-17T10:15:36.948Z,5.00
2022-08-17T10:18:41.410Z,5.18
2022-08-17T10:21:45.362Z,4.90
2022-08-17T10:25:21.618Z,4.97
2022-08-17T10:28:07.414Z,4.93
2022-08-17T10:31:30.843Z,4.85
2022-08-17T10:34:42.032Z,4.82
2022-08-17T10:37:42.338Z,4.95
2022-08-17T10:40:43.523Z,4.50
2022-08-17T10:44:36.554Z,4.60
2022-08-17T10:47:16.710Z,4.60
2022-08-17T10:50:40.084Z,4.70
2022-08-17T10:53:31.116Z,4.47
2022-08-17T10:56:18.968Z,4.88
2022-08-17T10:59:03.788Z,4.60
2022-08-17T11:01:48.914Z,4.82
2022-08-17T11:04:47.787Z,4.57
2022-08-17T11:08:05.397Z,4.60
2022-08-17T11:11:35.811Z,4.70
2022-08-17T11:14:34.937Z,4.20
2022-08-17T11:18:01.536Z,4.75
2022-08-17T11:21:07.940Z,4.70
2022-08-17T11:24:19.375Z,4.90
2022-08-17T11:27:22.031Z,4.40
2022-08-17T11:30:44.614Z,4.67
2022-08-17T11:33:33.989Z,4.30
2022-08-17T11:36:24.774Z,4.18
2022-08-17T11:39:13.066Z,4.32
2022-08-17T11:42:39.920Z,4.43
2022-08-17T11:45:39.173Z,4.60
2022-08-17T11:49:17.860Z,4.13
2022-08-17T11:52:04.802Z,4.10
2022-08-17T11:54:49.989Z,3.97
2022-08-17T11:57:41.219Z,4.22
2022-08-17T12:00:44.963Z,3.90
2022-08-17T12:03:33.585Z,3.97
2022-08-17T12:06:56.841Z,4.30
2022-08-17T12:09:45.589Z,4.50
2022-08-17T12:12:35.839Z,4.32
2022-08-17T12:15:29.569Z,3.83
2022-08-17T12:18:28.228Z,3.92
2022-08-17T12:21:33.075Z,4.10
2022-08-17T12:24:33.130Z,4.00
2022-08-17T12:28:05.623Z,3.92
2022-08-17T12:30:31.849Z,4.27
2022-08-17T12:33:25.581Z,3.97
2022-08-17T12:36:16.252Z,4.25
2022-08-17T12:39:13.660Z,3.78
2022-08-17T12:42:02.715Z,4.05
2022-08-17T12:44:50.496Z,3.90
2022-08-17T12:47:37.496Z,4.32
2022-08-17T12:50:29.281Z,3.67
2022-08-17T12:53:19.948Z,3.80
2022-08-17T12:56:12.016Z,4.00
2022-08-17T12:58:57.755Z,4.20
2022-08-17T13:01:43.213Z,3.88
2022-08-17T13:04:29.735Z,3.90
2022-08-17T13:07:26.963Z,3.90
2022-08-17T13:10:36.188Z,3.75
2022-08-17T13:13:26.913Z,3.70
2022-08-17T13:16:12.142Z,4.18
2022-08-17T13:19:14.590Z,3.90
2022-08-17T13:22:01.909Z,3.78
2022-08-17T13:24:56.316Z,3.75
2022-08-17T13:27:43.266Z,3.40
2022-08-17T13:30:33.184Z,3.80
2022-08-17T13:33:44.528Z,3.45
2022-08-17T13:36:32.054Z,3.70
2022-08-17T13:39:22.972Z,4.15
2022-08-17T13:42:51.904Z,3.30
2022-08-17T13:45:50.878Z,3.50
2022-08-17T13:48:36.587Z,3.50
2022-08-17T13:51:32.304Z,3.30
2022-08-17T13:54:29.606Z,3.40
2022-08-17T13:57:23.260Z,3.50
2022-08-17T14:00:18.162Z,3.30
2022-08-17T14:03:05.068Z,3.83
2022-08-17T14:05:52.311Z,3.70
2022-08-17T14:08:37.583Z,3.47
2022-08-17T14:11:23.781Z,3.33
2022-08-17T14:14:08.982Z,3.22
2022-08-17T14:16:54.612Z,3.53
2022-08-17T14:19:39.620Z,3.42
2022-08-17T14:22:30.426Z,3.42
2022-08-17T14:25:20.871Z,3.37
2022-08-17T14:28:07.055Z,3.50
2022-08-17T14:30:52.269Z,3.20
2022-08-17T14:33:37.911Z,3.15
2022-08-17T14:36:23.516Z,3.50
2022-08-17T14:39:10.593Z,3.23
2022-08-17T14:41:58.489Z,2.83
2022-08-17T14:44:43.469Z,2.88
2022-08-17T14:47:28.401Z,3.22
2022-08-17T14:50:19.419Z,3.22
2022-08-17T14:53:06.723Z,3.27
2022-08-17T14:55:52.159Z,3.35
2022-08-17T14:58:37.340Z,4.00
2022-08-17T15:01:25.800Z,3.97
2022-08-17T15:04:18.217Z,3.70
2022-08-17T15:07:04.578Z,3.73
2022-08-17T15:09:49.787Z,7.20
2022-08-17T15:12:36.587Z,9.45
2022-08-17T15:15:22.148Z,9.93
2022-08-17T15:18:08.282Z,10.15
2022-08-17T15:20:53.716Z,9.43
2022-08-17T15:23:39.729Z,8.35
2022-08-17T15:26:26.435Z,8.25
2022-08-17T15:29:11.835Z,8.10
2022-08-17T15:32:00.621Z,11.25
2022-08-17T15:34:46.203Z,15.30
2022-08-17T15:37:32.092Z,20.55
2022-08-17T15:40:17.398Z,22.92
2022-08-17T15:43:07.859Z,22.42
2022-08-17T15:46:06.083Z,18.65
2022-08-17T15:48:54.815Z,19.17
2022-08-17T15:51:40.224Z,18.10
2022-08-17T15:54:25.832Z,21.35
2022-08-17T15:57:20.454Z,19.83
2022-08-17T16:00:08.942Z,19.45
2022-08-17T16:03:45.086Z,17.83
2022-08-17T16:06:07.760Z,17.50
2022-08-17T16:08:57.518Z,20.50
2022-08-17T16:11:45.964Z,19.20
2022-08-17T16:14:37.834Z,18.75
2022-08-17T16:17:39.533Z,18.03
2022-08-17T16:20:26.280Z,18.42
2022-08-17T16:23:15.048Z,17.45
2022-08-17T16:26:02.254Z,18.05
2022-08-17T16:28:47.364Z,17.70
2022-08-17T16:31:34.229Z,16.93
2022-08-17T16:34:20.044Z,17.23
2022-08-17T16:37:05.175Z,16.52
2022-08-17T16:39:50.495Z,16.45
2022-08-17T16:42:38.588Z,16.10
2022-08-17T16:45:36.888Z,15.53
2022-08-17T16:48:23.242Z,15.23
2022-08-17T16:51:08.563Z,15.27
2022-08-17T16:54:57.238Z,14.75
2022-08-17T16:57:47.311Z,14.68
2022-08-17T17:00:36.678Z,14.47
2022-08-17T17:03:25.829Z,14.00
2022-08-17T17:06:38.647Z,14.35
2022-08-17T17:09:28.895Z,13.65
2022-08-17T17:12:18.240Z,13.07
2022-08-17T17:15:03.727Z,13.03
2022-08-17T17:17:49.874Z,13.02
2022-08-17T17:20:47.537Z,13.20
2022-08-17T17:23:45.654Z,12.60
2022-08-17T17:26:55.153Z,12.23
2022-08-17T17:29:59.408Z,12.33
2022-08-17T17:32:54.536Z,12.45
2022-08-17T17:35:43.692Z,11.90
2022-08-17T17:38:34.315Z,11.35
2022-08-17T17:41:34.242Z,11.75
2022-08-17T17:44:28.655Z,11.27
2022-08-17T17:47:15.296Z,11.40
2022-08-17T17:50:02.487Z,9.63
2022-08-17T17:52:52.654Z,10.07
2022-08-17T17:56:01.560Z,9.90
2022-08-17T17:59:23.459Z,10.27
2022-08-17T18:02:52.224Z,9.48
2022-08-17T18:06:00.621Z,10.27
2022-08-17T18:09:04.622Z,10.07
2022-08-17T18:12:06.500Z,9.00
2022-08-17T18:14:55.561Z,9.57
2022-08-17T18:18:01.180Z,9.45
2022-08-17T18:20:53.681Z,8.98
2022-08-17T18:24:00.054Z,9.00
2022-08-17T18:26:53.685Z,9.30
2022-08-17T18:29:44.662Z,9.20
2022-08-17T18:32:42.471Z,9.68
2022-08-17T18:35:30.201Z,8.80
2022-08-17T18:38:27.609Z,9.35
2022-08-17T18:41:24.377Z,8.73
2022-08-17T18:44:25.220Z,8.73
2022-08-17T18:47:21.240Z,8.63
2022-08-17T18:50:23.425Z,8.60
2022-08-17T18:53:33.407Z,8.68
2022-08-17T18:56:31.797Z,8.70
2022-08-17T18:59:16.830Z,8.57
2022-08-17T19:02:27.380Z,8.90
2022-08-17T19:05:30.707Z,8.02
2022-08-17T19:08:21.326Z,8.00
2022-08-17T19:11:35.557Z,8.55
2022-08-17T19:14:21.278Z,7.93
2022-08-17T19:17:16.362Z,7.97
2022-08-17T19:20:17.197Z,8.10
2022-08-17T19:23:24.903Z,7.55
2022-08-17T19:26:55.381Z,8.00
2022-08-17T19:29:41.741Z,8.00
2022-08-17T19:32:30.175Z,7.78
2022-08-17T19:35:20.039Z,7.88
2022-08-17T19:38:14.440Z,7.57
2022-08-17T19:41:11.768Z,7.80
2022-08-17T19:44:37.653Z,7.63
2022-08-17T19:47:53.692Z,7.50
2022-08-17T19:51:06.056Z,7.50
2022-08-17T19:54:20.325Z,7.53
2022-08-17T19:57:20.214Z,7.60
2022-08-17T20:00:13.533Z,7.60
2022-08-17T20:03:16.198Z,7.78
2022-08-17T20:06:13.879Z,7.68
2022-08-17T20:09:15.072Z,7.30
2022-08-17T20:12:21.007Z,7.35
2022-08-17T20:15:11.222Z,7.00
2022-08-17T20:18:00.114Z,7.20
2022-08-17T20:20:59.606Z,7.60
2022-08-17T20:23:53.088Z,7.53
2022-08-17T20:26:55.205Z,6.65
2022-08-17T20:30:29.742Z,6.90
2022-08-17T20:33:32.203Z,7.32
2022-08-17T20:36:22.678Z,7.28
2022-08-17T20:39:34.054Z,7.18
2022-08-17T20:42:20.236Z,7.10
2022-08-17T20:45:46.425Z,7.33
2022-08-17T20:48:38.298Z,7.82
2022-08-17T20:51:34.664Z,7.18
2022-08-17T20:54:19.832Z,7.20
2022-08-17T20:57:06.086Z,7.35
2022-08-17T21:00:33.130Z,6.77
2022-08-17T21:03:24.133Z,7.05
2022-08-17T21:09:29.781Z,6.93
2022-08-17T21:12:40.616Z,6.88
2022-08-17T21:15:32.207Z,7.17
2022-08-17T21:18:44.423Z,7.30
2022-08-17T21:21:41.150Z,7.43
2022-08-17T21:24:35.609Z,6.40
2022-08-17T21:27:28.783Z,6.95
2022-08-17T21:30:29.329Z,7.20
2022-08-17T21:33:20.247Z,7.13
2022-08-17T21:36:11.704Z,7.05
2022-08-17T21:39:02.702Z,6.88
2022-08-17T21:41:52.827Z,6.40
2022-08-17T21:44:47.155Z,7.30
2022-08-17T21:47:32.272Z,6.85
2022-08-17T21:50:24.126Z,9.45
2022-08-17T21:53:21.461Z,8.25
2022-08-17T21:56:07.671Z,7.93
2022-08-17T21:58:59.031Z,7.50
2022-08-17T22:01:52.865Z,7.40
2022-08-17T22:04:41.456Z,7.25
2022-08-17T22:07:39.357Z,7.00
2022-08-17T22:10:40.865Z,7.40
2022-08-17T22:13:29.646Z,6.80
2022-08-17T22:16:28.757Z,7.13
2022-08-17T22:19:15.128Z,7.47
2022-08-17T22:22:10.317Z,7.13
2022-08-17T22:24:59.344Z,7.25
2022-08-17T22:27:56.902Z,6.87
2022-08-17T22:31:01.486Z,7.13
2022-08-17T22:34:07.474Z,7.00
2022-08-17T22:37:27.214Z,7.40
2022-08-17T22:40:25.715Z,6.80
2022-08-17T22:43:12.559Z,6.80
2022-08-17T22:45:59.900Z,7.18
2022-08-17T22:48:57.828Z,7.20
2022-08-17T22:51:43.404Z,7.00
2022-08-17T22:54:47.956Z,7.05
2022-08-17T22:57:54.007Z,7.30
2022-08-17T23:00:43.080Z,6.95
2022-08-17T23:03:28.427Z,7.68
2022-08-17T23:06:13.550Z,7.40
2022-08-17T23:08:58.632Z,7.20
2022-08-17T23:11:49.380Z,6.80
2022-08-17T23:14:41.186Z,7.22
2022-08-17T23:17:28.472Z,7.22
2022-08-17T23:20:15.840Z,6.95
2022-08-17T23:23:01.229Z,7.00
2022-08-17T23:25:46.439Z,7.43
2022-08-17T23:28:31.552Z,6.90
2022-08-17T23:31:19.712Z,7.82
2022-08-17T23:34:14.583Z,7.40
2022-08-17T23:37:02.304Z,7.30
2022-08-17T23:39:47.796Z,7.20
2022-08-17T23:42:33.652Z,7.40
2022-08-17T23:45:19.939Z,7.53
2022-08-17T23:48:07.837Z,7.03
2022-08-17T23:50:55.266Z,7.28
2022-08-17T23:53:48.124Z,7.40
2022-08-17T23:56:33.462Z,7.88
2022-08-17T23:59:20.369Z,7.45
